Time;durP1;ratioP1;P1;durP2;ratioP2;P2;SDS_P1;SDS_P2;PMS_P1;PMS_P2;Temp;Humidity;BMP_temperature;BMP_pressure;BME280_temperature;BME280_humidity;BME280_pressure;Samples;Min_cycle;Max_cycle;Signal;HPM_P1;HPM_P2
2023/09/04 00:00:26;;;;;;;4.75;2.67;;;;;;;18.49;100.00;64918.25;5051550;28;20205;-54
2023/09/04 00:02:52;;;;;;;4.18;1.83;;;;;;;18.31;100.00;64898.94;5032254;28;20325;-55
2023/09/04 00:05:18;;;;;;;2.63;1.85;;;;;;;18.20;100.00;64886.78;5051058;28;20197;-55
2023/09/04 00:07:45;;;;;;;2.85;2.20;;;;;;;18.01;100.00;64865.28;5051242;28;20209;-59
2023/09/04 00:10:10;;;;;;;3.38;2.40;;;;;;;18.22;100.00;64889.00;5032689;28;20275;-54
2023/09/04 00:12:36;;;;;;;2.80;2.35;;;;;;;18.38;100.00;64908.66;5049694;28;20748;-53
2023/09/04 00:15:02;;;;;;;2.13;1.92;;;;;;;18.53;100.00;64924.66;5032511;28;20578;-53
2023/09/04 00:17:28;;;;;;;4.97;2.67;;;;;;;18.58;100.00;64925.09;5051111;28;20331;-55
2023/09/04 00:19:53;;;;;;;4.57;2.15;;;;;;;18.56;100.00;64925.97;5050145;28;20635;-55
2023/09/04 00:22:20;;;;;;;2.47;2.25;;;;;;;18.43;100.00;64914.19;5050749;28;20639;-55
2023/09/04 00:24:45;;;;;;;1.92;1.70;;;;;;;18.38;100.00;64904.09;5050905;28;20197;-55
2023/09/04 00:27:10;;;;;;;2.20;2.00;;;;;;;18.13;100.00;64879.09;5050802;28;20214;-55
2023/09/04 00:29:36;;;;;;;2.97;2.20;;;;;;;17.83;100.00;64845.44;5051228;28;20547;-55
2023/09/04 00:32:02;;;;;;;4.13;2.28;;;;;;;17.81;100.00;64845.81;5051215;28;20572;-55
2023/09/04 00:34:28;;;;;;;5.20;2.22;;;;;;;17.67;100.00;64827.81;5051005;28;20197;-54
2023/09/04 00:36:53;;;;;;;3.33;2.53;;;;;;;17.81;100.00;64845.81;5050677;28;20721;-54
2023/09/04 00:39:19;;;;;;;3.15;1.83;;;;;;;17.84;100.00;64847.09;5050684;28;20216;-55
2023/09/04 00:41:46;;;;;;;3.28;2.35;;;;;;;17.76;100.00;64837.72;5050637;28;20218;-55
2023/09/04 00:44:12;;;;;;;2.63;2.30;;;;;;;18.00;100.00;64864.19;5050676;28;20296;-59
2023/09/04 00:46:38;;;;;;;5.05;2.42;;;;;;;17.89;100.00;64854.63;5050612;28;20209;-54
2023/09/04 00:49:04;;;;;;;3.08;2.60;;;;;;;17.84;100.00;64849.66;5050449;28;20209;-54
2023/09/04 00:51:30;;;;;;;2.55;2.33;;;;;;;17.74;100.00;64835.53;5050841;28;20232;-55
2023/09/04 00:53:55;;;;;;;3.40;2.50;;;;;;;17.70;100.00;64831.13;5050441;28;20206;-54
2023/09/04 00:56:22;;;;;;;2.50;2.30;;;;;;;17.73;100.00;64834.44;5050229;28;20303;-55
2023/09/04 00:58:48;;;;;;;3.92;2.20;;;;;;;17.65;100.00;64828.16;5050281;28;20225;-53
2023/09/04 01:01:14;;;;;;;4.45;2.20;;;;;;;17.74;100.00;64838.63;5050413;28;20289;-54
2023/09/04 01:03:39;;;;;;;5.28;2.28;;;;;;;18.00;100.00;64867.28;5050368;28;20292;-55
2023/09/04 01:06:06;;;;;;;3.85;2.78;;;;;;;18.09;100.00;64872.13;5050403;28;20715;-54
2023/09/04 01:08:31;;;;;;;3.85;2.50;;;;;;;18.05;100.00;64872.25;5050190;28;20218;-54
2023/09/04 01:11:30;;;;;;;2.75;2.38;;;;;;;17.95;100.00;64856.69;5050118;28;20251;-55
2023/09/04 01:13:58;;;;;;;5.18;2.83;;;;;;;17.73;100.00;64834.44;5045545;28;20240;-54
2023/09/04 01:16:24;;;;;;;2.78;2.22;;;;;;;17.79;100.00;64841.59;5032182;28;20213;-55
2023/09/04 01:18:50;;;;;;;5.63;2.50;;;;;;;17.85;100.00;64845.66;5050143;28;20224;-55
2023/09/04 01:21:16;;;;;;;5.50;2.80;;;;;;;17.66;100.00;64827.25;5049902;28;20218;-57
2023/09/04 01:23:42;;;;;;;3.90;2.53;;;;;;;17.79;100.00;64843.59;5032188;28;20197;-55
2023/09/04 01:26:29;;;;;;;3.22;2.30;;;;;;;17.90;100.00;64856.25;5050150;28;20229;-56
2023/09/04 01:29:23;;;;;;;4.22;2.30;;;;;;;17.86;100.00;64846.19;5050057;28;20303;-54
2023/09/04 01:32:10;;;;;;;2.55;2.05;;;;;;;17.97;100.00;64861.44;5049897;28;20231;-53
2023/09/04 01:34:46;;;;;;;4.20;2.30;;;;;;;17.87;100.00;64850.41;5049881;28;20303;-54
2023/09/04 01:37:13;;;;;;;4.28;2.63;;;;;;;17.73;100.00;64834.44;5049678;28;20220;-54
2023/09/04 01:39:39;;;;;;;3.25;2.58;;;;;;;17.99;100.00;64863.09;5049981;28;20212;-54
2023/09/04 01:42:05;;;;;;;5.57;2.65;;;;;;;17.94;100.00;64858.13;5050019;28;20247;-54
2023/09/04 01:44:30;;;;;;;4.63;2.78;;;;;;;17.86;100.00;64849.31;5049913;28;20229;-54
2023/09/04 01:46:56;;;;;;;4.30;2.78;;;;;;;17.75;100.00;64839.19;5049759;28;20698;-54
2023/09/04 01:49:22;;;;;;;2.88;2.60;;;;;;;17.83;100.00;64846.00;5049574;28;20213;-55
2023/09/04 01:51:48;;;;;;;3.35;3.05;;;;;;;17.63;100.00;64827.06;5049739;28;20223;-54
2023/09/04 01:54:13;;;;;;;4.68;3.33;;;;;;;17.66;100.00;64826.69;5049769;28;20208;-54
2023/09/04 01:56:38;;;;;;;3.90;2.83;;;;;;;17.79;100.00;64843.59;5049584;28;20620;-55
2023/09/04 01:59:04;;;;;;;4.13;2.90;;;;;;;17.76;100.00;64840.28;5049466;28;20201;-54
2023/09/04 02:01:29;;;;;;;6.55;3.30;;;;;;;17.78;100.00;64842.47;5049334;28;20213;-54
2023/09/04 02:03:57;;;;;;;7.60;3.35;;;;;;;17.81;100.00;64846.34;5049517;28;20734;-54
2023/09/04 02:06:24;;;;;;;4.90;3.28;;;;;;;17.91;100.00;64854.28;5031574;28;20263;-54
2023/09/04 02:08:49;;;;;;;3.67;3.38;;;;;;;17.91;100.00;64854.28;5031441;28;20205;-55
2023/09/04 02:11:15;;;;;;;3.80;3.25;;;;;;;17.79;100.00;64844.16;5049587;28;20551;-54
2023/09/04 02:13:40;;;;;;;4.00;3.50;;;;;;;17.65;100.00;64825.63;5049339;28;20255;-54
2023/09/04 02:16:06;;;;;;;3.63;3.33;;;;;;;17.69;100.00;64832.56;5049218;28;20213;-55
2023/09/04 02:18:31;;;;;;;4.47;3.08;;;;;;;17.70;100.00;64834.22;5031523;28;20262;-55
2023/09/04 02:20:59;;;;;;;6.40;3.97;;;;;;;17.59;100.00;64825.19;5031585;28;20202;-54
2023/09/04 02:23:25;;;;;;;4.85;3.15;;;;;;;17.66;100.00;64829.25;5047881;28;20206;-55
2023/09/04 02:25:51;;;;;;;4.07;3.67;;;;;;;18.00;100.00;64867.28;5049279;28;20574;-54
2023/09/04 02:28:16;;;;;;;5.82;3.50;;;;;;;17.99;100.00;64863.66;5049127;28;20225;-54
2023/09/04 02:30:41;;;;;;;4.40;3.35;;;;;;;17.91;100.00;64854.81;5049355;28;20284;-55
2023/09/04 02:33:07;;;;;;;5.20;3.58;;;;;;;17.87;100.00;64852.97;5031261;28;20584;-54
2023/09/04 02:35:33;;;;;;;6.25;3.75;;;;;;;18.03;100.00;64870.59;5031178;28;20208;-60
2023/09/04 02:37:59;;;;;;;3.85;2.92;;;;;;;17.89;100.00;64854.63;5051667;28;20215;-54
2023/09/04 02:40:24;;;;;;;4.95;3.25;;;;;;;17.71;100.00;64832.78;5052665;28;20277;-56
2023/09/04 02:42:50;;;;;;;3.72;2.90;;;;;;;17.52;100.00;64809.84;5052525;28;20679;-54
2023/09/04 02:45:15;;;;;;;5.30;3.80;;;;;;;17.58;100.00;64819.00;5052396;28;20598;-54
2023/09/04 02:47:41;;;;;;;5.00;4.50;;;;;;;17.61;100.00;64822.28;5052381;28;20220;-55
2023/09/04 02:50:08;;;;;;;8.80;7.50;;;;;;;17.66;100.00;64824.72;5052159;28;20771;-55
2023/09/04 02:52:34;;;;;;;7.03;5.70;;;;;;;17.74;100.00;64838.63;5052172;28;20213;-54
2023/09/04 02:55:00;;;;;;;4.70;4.28;;;;;;;17.82;100.00;64844.91;5052281;28;20225;-53
2023/09/04 02:57:28;;;;;;;4.57;3.78;;;;;;;17.63;100.00;64824.50;5051927;28;20213;-55
2023/09/04 02:59:54;;;;;;;4.97;4.47;;;;;;;17.75;100.00;64834.66;5034121;28;20614;-54
2023/09/04 03:02:21;;;;;;;4.25;3.40;;;;;;;17.70;100.00;64836.78;5051980;28;20220;-55
2023/09/04 03:04:52;;;;;;;5.05;4.47;;;;;;;17.73;100.00;64835.00;5051835;28;20233;-54
2023/09/04 03:07:18;;;;;;;8.85;6.85;;;;;;;17.69;100.00;64828.03;5052610;28;20255;-54
2023/09/04 03:09:44;;;;;;;8.15;7.30;;;;;;;17.69;100.00;64833.13;5034047;28;21050;-55
2023/09/04 03:12:09;;;;;;;3.97;3.53;;;;;;;17.65;100.00;64825.63;5051894;28;20252;-56
2023/09/04 03:14:35;;;;;;;2.50;2.30;;;;;;;17.31;100.00;64791.75;5052252;28;20201;-54
2023/09/04 03:17:00;;;;;;;2.78;2.58;;;;;;;17.28;100.00;64785.38;5052000;28;20696;-54
2023/09/04 03:19:27;;;;;;;5.50;3.10;;;;;;;17.02;100.00;64759.28;5051870;28;20255;-54
2023/09/04 03:21:53;;;;;;;4.10;2.70;;;;;;;16.94;100.00;64748.47;5051901;28;20240;-57
2023/09/04 03:24:20;;;;;;;3.33;2.53;;;;;;;16.84;100.00;64739.44;5051843;28;20723;-54
2023/09/04 03:26:47;;;;;;;5.75;2.38;;;;;;;16.80;100.00;64735.59;5051653;28;20205;-53
2023/09/04 03:29:13;;;;;;;2.53;2.30;;;;;;;16.78;100.00;64731.41;5051635;28;20213;-54
2023/09/04 03:31:38;;;;;;;2.50;2.30;;;;;;;16.71;100.00;64726.22;5051740;28;20706;-54
2023/09/04 03:34:05;;;;;;;2.97;2.53;;;;;;;16.72;100.00;64724.25;5051694;28;20205;-54
2023/09/04 03:36:31;;;;;;;2.67;2.30;;;;;;;16.67;100.00;64718.72;5051825;28;20206;-55
2023/09/04 03:38:56;;;;;;;2.55;2.35;;;;;;;16.69;100.00;64723.47;5051835;28;20216;-54
2023/09/04 03:41:22;;;;;;;4.68;2.50;;;;;;;16.63;100.00;64717.41;5051428;28;20758;-55
2023/09/04 03:43:47;;;;;;;2.92;2.70;;;;;;;16.58;100.00;64709.34;5033654;28;20238;-54
2023/09/04 03:46:13;;;;;;;2.88;2.33;;;;;;;16.48;100.00;64698.31;5051361;28;20304;-53
2023/09/04 03:48:38;;;;;;;2.60;2.30;;;;;;;16.49;100.00;64702.00;5050296;28;20274;-53
2023/09/04 03:51:05;;;;;;;2.53;2.33;;;;;;;16.48;100.00;64700.88;5051524;28;20201;-55
2023/09/04 03:53:30;;;;;;;3.65;2.60;;;;;;;16.47;100.00;64702.31;5051468;28;20213;-54
2023/09/04 03:56:03;;;;;;;5.30;3.42;;;;;;;16.53;100.00;64706.41;5051428;28;20190;-55
2023/09/04 03:58:28;;;;;;;3.17;2.88;;;;;;;16.49;100.00;64701.44;5051297;28;20216;-56
2023/09/04 04:00:58;;;;;;;3.08;2.80;;;;;;;16.50;100.00;64702.56;5033206;28;20197;-54
2023/09/04 04:03:24;;;;;;;3.30;3.00;;;;;;;16.38;100.00;64689.88;5051039;28;20205;-55
2023/09/04 04:05:50;;;;;;;3.03;2.78;;;;;;;16.34;100.00;64682.91;5051381;28;20204;-55
2023/09/04 04:08:15;;;;;;;3.53;3.13;;;;;;;16.24;100.00;64669.38;5033218;28;20209;-55
2023/09/04 04:10:41;;;;;;;3.70;3.33;;;;;;;16.25;100.00;64675.56;5051172;28;20255;-54
2023/09/04 04:13:07;;;;;;;3.53;3.22;;;;;;;16.29;100.00;64674.31;5050964;28;20216;-54
2023/09/04 04:15:32;;;;;;;3.22;2.72;;;;;;;16.21;100.00;64671.16;5051029;28;20205;-59
2023/09/04 04:17:57;;;;;;;3.22;3.00;;;;;;;16.33;100.00;64678.72;5050844;28;20755;-54
2023/09/04 04:20:25;;;;;;;3.63;3.33;;;;;;;16.24;100.00;64671.38;5051062;28;20197;-53
2023/09/04 04:22:50;;;;;;;3.85;2.97;;;;;;;16.25;100.00;64673.03;5032933;28;20218;-54
2023/09/04 04:25:15;;;;;;;3.75;3.30;;;;;;;16.30;100.00;64681.06;5050772;28;20205;-55
2023/09/04 04:27:44;;;;;;;3.17;2.88;;;;;;;16.27;100.00;64672.69;5050723;28;20205;-57
2023/09/04 04:30:09;;;;;;;5.30;3.80;;;;;;;16.30;100.00;64678.50;5050698;28;20206;-55
2023/09/04 04:32:35;;;;;;;3.92;3.60;;;;;;;16.33;100.00;64683.81;5050749;28;20208;-54
2023/09/04 04:35:00;;;;;;;3.47;3.17;;;;;;;16.35;100.00;64686.56;5050532;28;20206;-63
2023/09/04 04:37:26;;;;;;;4.03;3.20;;;;;;;16.21;100.00;64671.16;5051115;28;20225;-55
2023/09/04 04:39:52;;;;;;;3.78;3.47;;;;;;;16.15;100.00;64664.56;5050891;28;20210;-54
2023/09/04 04:42:18;;;;;;;5.20;2.80;;;;;;;16.10;100.00;64661.59;5050873;28;20225;-55
2023/09/04 04:44:44;;;;;;;4.63;2.55;;;;;;;16.09;100.00;64660.50;5050679;28;20200;-54
2023/09/04 04:47:09;;;;;;;3.50;2.78;;;;;;;16.02;100.00;64650.25;5050914;28;20640;-54
2023/09/04 04:49:35;;;;;;;2.80;2.60;;;;;;;15.98;100.00;64640.75;5050409;28;20687;-54
2023/09/04 04:52:00;;;;;;;3.72;3.05;;;;;;;15.87;100.00;64633.75;5050722;28;20210;-58
2023/09/04 04:54:27;;;;;;;3.50;3.17;;;;;;;16.04;100.00;64649.91;5050508;28;20699;-55
2023/09/04 04:56:52;;;;;;;3.85;2.72;;;;;;;15.95;100.00;64642.53;5050190;28;20225;-60
2023/09/04 04:59:18;;;;;;;3.55;3.20;;;;;;;15.95;100.00;64642.53;5050140;28;20194;-55
2023/09/04 05:01:45;;;;;;;8.05;3.58;;;;;;;16.03;100.00;64651.34;5050827;28;20256;-55
2023/09/04 05:04:12;;;;;;;3.22;2.60;;;;;;;15.99;100.00;64644.41;5050288;28;20193;-54
2023/09/04 05:06:38;;;;;;;3.10;2.80;;;;;;;16.00;100.00;64648.03;5050429;28;20296;-55
2023/09/04 05:09:05;;;;;;;4.05;2.97;;;;;;;16.04;100.00;64649.38;5050837;28;20305;-53
2023/09/04 05:11:30;;;;;;;3.42;2.17;;;;;;;16.44;100.00;64696.47;5032655;28;20209;-55
2023/09/04 05:13:56;;;;;;;5.30;3.10;;;;;;;16.75;100.00;64730.06;5050427;28;20255;-55
2023/09/04 05:16:22;;;;;;;11.23;4.15;;;;;;;17.37;100.00;64798.38;5050199;28;20219;-55
2023/09/04 05:18:48;;;;;;;6.22;3.53;;;;;;;17.39;100.00;64800.03;5032625;28;20296;-56
2023/09/04 05:21:14;;;;;;;4.93;3.08;;;;;;;17.65;100.00;64826.16;5050553;28;20301;-55
2023/09/04 05:23:40;;;;;;;5.07;3.20;;;;;;;17.51;100.00;64813.81;5032324;28;20212;-56
2023/09/04 05:26:06;;;;;;;3.83;2.80;;;;;;;17.26;100.00;64785.72;5050493;28;20201;-60
2023/09/04 05:28:32;;;;;;;5.85;3.03;;;;;;;17.47;100.00;64811.94;5050300;28;20663;-55
2023/09/04 05:31:04;;;;;;;5.57;2.72;;;;;;;17.49;100.00;64811.63;5032524;28;20197;-56
2023/09/04 05:33:29;;;;;;;5.55;3.08;;;;;;;17.38;100.00;64794.41;5050166;28;20255;-55
2023/09/04 05:35:56;;;;;;;2.78;2.55;;;;;;;17.51;100.00;64813.28;5032219;28;20190;-55
2023/09/04 05:38:23;;;;;;;3.30;2.83;;;;;;;16.98;100.00;64755.41;5050194;28;20206;-55
2023/09/04 05:40:50;;;;;;;6.07;2.47;;;;;;;16.79;100.00;64735.03;5032125;28;20224;-55
2023/09/04 05:43:19;;;;;;;3.60;2.70;;;;;;;17.03;100.00;64757.84;5032022;28;20205;-55
2023/09/04 05:45:45;;;;;;;3.63;2.60;;;;;;;17.08;100.00;64765.88;5049893;28;20250;-56
2023/09/04 05:48:11;;;;;;;5.93;3.50;;;;;;;16.89;100.00;64742.41;5049083;28;20217;-56
2023/09/04 05:50:36;;;;;;;4.47;3.08;;;;;;;16.97;100.00;64751.22;5048031;28;20220;-56
2023/09/04 05:53:02;;;;;;;4.75;2.63;;;;;;;17.22;100.00;64778.75;5049907;28;20213;-55
2023/09/04 05:55:28;;;;;;;2.97;2.78;;;;;;;17.44;100.00;64803.00;5050005;28;20216;-55
2023/09/04 05:57:54;;;;;;;2.60;2.40;;;;;;;17.39;99.25;64797.50;5032254;28;20691;-55
2023/09/04 06:00:21;;;;;;;2.92;2.55;;;;;;;17.35;99.67;64793.09;5032301;28;20340;-54
2023/09/04 06:02:48;;;;;;;4.15;3.00;;;;;;;17.18;98.36;64774.34;5033790;28;20619;-51
2023/09/04 06:05:21;;;;;;;3.88;2.85;;;;;;;16.97;100.00;64753.78;5050640;28;20201;-53
2023/09/04 06:07:47;;;;;;;2.15;2.05;;;;;;;17.29;98.97;64789.56;5050902;28;20299;-53
2023/09/04 06:10:13;;;;;;;5.47;2.72;;;;;;;17.81;100.00;64846.34;5032989;28;20222;-52
2023/09/04 06:12:39;;;;;;;3.28;2.72;;;;;;;17.85;96.78;64848.22;5054299;28;20208;-54
2023/09/04 06:15:06;;;;;;;4.05;2.42;;;;;;;17.35;96.55;64791.06;5054667;28;20201;-51
2023/09/04 06:17:32;;;;;;;4.07;2.92;;;;;;;17.30;97.98;64787.56;5037602;28;20208;-58
2023/09/04 06:20:14;;;;;;;4.25;2.58;;;;;;;17.51;98.82;64813.28;5036180;28;20209;-55
2023/09/04 06:22:44;;;;;;;3.97;3.13;;;;;;;17.53;96.16;64812.94;5036588;28;20694;-55
2023/09/04 06:25:10;;;;;;;6.03;2.92;;;;;;;17.20;97.83;64777.09;5054517;28;20284;-56
2023/09/04 06:27:35;;;;;;;3.42;3.10;;;;;;;17.19;98.60;64778.00;5054954;28;20225;-53
2023/09/04 06:30:03;;;;;;;3.78;2.80;;;;;;;17.42;100.00;64800.78;5054688;28;20503;-51
2023/09/04 06:32:28;;;;;;;4.72;3.13;;;;;;;17.67;96.13;64827.81;5054790;28;20213;-55
2023/09/04 06:34:54;;;;;;;4.28;3.15;;;;;;;17.53;95.24;64815.50;5053565;28;20591;-55
2023/09/04 06:37:20;;;;;;;3.20;2.90;;;;;;;17.59;94.76;64820.09;5053698;28;20213;-52
2023/09/04 06:39:45;;;;;;;4.03;3.28;;;;;;;18.05;95.56;64869.72;5054004;28;20276;-53
2023/09/04 06:42:12;;;;;;;7.10;3.70;;;;;;;18.00;91.17;64869.28;5052114;28;20275;-52
2023/09/04 06:44:37;;;;;;;5.65;4.13;;;;;;;17.98;92.13;64862.53;5054160;28;20280;-55
2023/09/04 06:47:04;;;;;;;5.40;4.50;;;;;;;17.92;93.08;64855.38;5054070;28;20302;-55
2023/09/04 06:49:30;;;;;;;5.53;3.45;;;;;;;17.24;93.54;64783.50;5054560;28;20213;-55
2023/09/04 06:51:57;;;;;;;2.90;2.70;;;;;;;16.85;95.49;64738.53;5053767;28;20308;-53
2023/09/04 06:54:22;;;;;;;4.30;3.17;;;;;;;17.38;94.60;64794.41;5054890;28;20209;-55
2023/09/04 06:56:48;;;;;;;3.47;2.97;;;;;;;17.75;92.35;64834.66;5053527;28;20221;-53
2023/09/04 06:59:14;;;;;;;4.13;3.72;;;;;;;17.43;92.94;64802.44;5052987;28;20217;-56
2023/09/04 07:01:39;;;;;;;3.95;2.92;;;;;;;17.65;94.23;64825.63;5054210;28;20296;-54
2023/09/04 07:04:05;;;;;;;4.95;3.88;;;;;;;18.05;94.70;64870.25;5053670;28;20225;-53
2023/09/04 07:06:32;;;;;;;3.95;3.53;;;;;;;17.82;91.73;64844.34;5053546;28;20213;-57
2023/09/04 07:08:58;;;;;;;4.95;3.55;;;;;;;17.44;93.92;64806.09;5054494;28;20213;-54
2023/09/04 07:11:26;;;;;;;6.53;3.03;;;;;;;17.12;94.98;64767.75;5053537;28;20294;-55
2023/09/04 07:13:52;;;;;;;3.10;2.90;;;;;;;17.71;93.71;64834.78;5055270;28;20197;-53
2023/09/04 07:16:18;;;;;;;4.93;3.53;;;;;;;17.89;91.26;64852.06;5036529;28;20603;-56
2023/09/04 07:18:44;;;;;;;3.58;3.10;;;;;;;17.92;89.26;64858.47;5053165;28;20284;-53
2023/09/04 07:21:10;;;;;;;3.75;3.30;;;;;;;17.83;89.58;64848.00;5053840;28;20682;-51
2023/09/04 07:23:36;;;;;;;3.78;3.38;;;;;;;17.71;90.65;64832.78;5052778;28;20240;-55
2023/09/04 07:26:01;;;;;;;4.55;3.58;;;;;;;17.77;93.53;64839.41;5052712;28;20300;-50
2023/09/04 07:28:27;;;;;;;8.07;3.33;;;;;;;18.15;89.71;64881.28;5051913;28;20178;-55
2023/09/04 07:31:19;;;;;;;3.72;3.42;;;;;;;18.02;88.75;64866.94;5052513;28;20205;-57
2023/09/04 07:33:50;;;;;;;5.10;3.60;;;;;;;17.79;88.91;64841.03;5052047;28;20263;-55
2023/09/04 07:36:16;;;;;;;5.50;3.20;;;;;;;17.90;91.68;64853.16;5051781;28;20209;-54
2023/09/04 07:38:46;;;;;;;4.97;3.60;;;;;;;17.46;91.09;64805.19;5033939;28;20201;-56
2023/09/04 07:41:12;;;;;;;9.25;4.85;;;;;;;17.87;93.47;64850.41;5051649;28;20217;-57
2023/09/04 07:43:37;;;;;;;4.93;4.20;;;;;;;17.76;90.40;64837.72;5033806;28;20739;-55
2023/09/04 07:46:04;;;;;;;3.90;3.45;;;;;;;18.19;90.86;64885.69;5051811;28;20646;-56
2023/09/04 07:48:31;;;;;;;3.75;3.42;;;;;;;18.26;87.97;64890.31;5051363;28;20654;-56
2023/09/04 07:50:56;;;;;;;3.80;3.35;;;;;;;18.19;86.36;64885.69;5051670;28;20216;-55
2023/09/04 07:53:24;;;;;;;3.50;3.20;;;;;;;18.03;86.94;64870.59;5033933;28;20210;-57
2023/09/04 07:55:51;;;;;;;4.97;3.78;;;;;;;18.04;87.27;64871.69;5033509;28;20213;-54
2023/09/04 07:58:17;;;;;;;4.25;3.20;;;;;;;18.11;86.56;64874.31;5033441;28;20249;-56
2023/09/04 08:00:45;;;;;;;4.10;2.85;;;;;;;17.97;86.85;64864.00;5033618;28;20206;-53
2023/09/04 08:03:11;;;;;;;5.53;3.50;;;;;;;17.75;88.43;64834.66;5033510;28;20210;-55
2023/09/04 08:05:37;;;;;;;4.53;2.78;;;;;;;17.72;88.91;64833.31;5051373;28;20335;-61
2023/09/04 08:08:07;;;;;;;4.55;3.83;;;;;;;17.60;90.39;64820.66;5051274;28;20214;-55
2023/09/04 08:10:39;;;;;;;7.55;3.88;;;;;;;17.98;89.75;64861.97;5033550;28;20229;-55
2023/09/04 08:13:08;;;;;;;3.40;3.10;;;;;;;17.88;89.02;64854.06;5051311;28;20296;-58
2023/09/04 08:15:35;;;;;;;5.65;3.38;;;;;;;18.23;88.63;64889.56;5051316;28;20255;-54
2023/09/04 08:18:01;;;;;;;4.53;3.38;;;;;;;18.37;87.09;64905.56;5033591;28;20236;-58
2023/09/04 08:20:27;;;;;;;4.80;3.35;;;;;;;18.05;87.81;64870.25;5051320;28;20197;-56
2023/09/04 08:22:53;;;;;;;3.63;3.33;;;;;;;17.93;89.22;64859.03;5051043;28;20220;-55
2023/09/04 08:25:19;;;;;;;9.23;4.28;;;;;;;18.56;86.31;64922.88;5033223;28;20201;-56
2023/09/04 08:27:45;;;;;;;4.15;3.75;;;;;;;18.33;87.25;64900.59;5051205;28;20212;-54
2023/09/04 08:30:11;;;;;;;4.35;3.40;;;;;;;18.52;87.83;64924.13;5050639;28;20221;-54
2023/09/04 08:32:37;;;;;;;4.95;3.58;;;;;;;18.23;85.78;64887.00;5033220;28;20257;-56
2023/09/04 08:35:05;;;;;;;3.22;2.92;;;;;;;18.26;86.46;64893.41;5050178;28;20347;-55
2023/09/04 08:37:31;;;;;;;9.43;4.00;;;;;;;18.59;85.81;64928.72;5050890;28;20638;-55
2023/09/04 08:39:57;;;;;;;4.40;3.70;;;;;;;18.54;84.45;64923.78;5032891;28;20802;-56
2023/09/04 08:42:24;;;;;;;5.68;3.78;;;;;;;18.73;83.71;64942.19;5050551;28;20213;-55
2023/09/04 08:44:51;;;;;;;3.45;3.15;;;;;;;18.57;82.27;64926.53;5032832;28;20209;-55
2023/09/04 08:47:21;;;;;;;4.30;3.60;;;;;;;18.90;83.36;64960.38;5033095;28;20251;-56
2023/09/04 08:49:47;;;;;;;5.07;4.32;;;;;;;19.25;81.70;65004.09;5050701;28;20722;-55
2023/09/04 08:52:13;;;;;;;5.68;5.05;;;;;;;19.80;80.68;65064.88;5051112;28;20214;-55
2023/09/04 08:54:40;;;;;;;4.07;3.50;;;;;;;20.14;77.51;65098.78;5050727;28;20205;-55
2023/09/04 08:57:08;;;;;;;6.18;3.85;;;;;;;20.31;75.47;65117.56;5050827;28;20699;-55
2023/09/04 08:59:34;;;;;;;4.60;3.92;;;;;;;20.08;74.15;65095.78;5032720;28;20205;-57
2023/09/04 09:02:04;;;;;;;4.88;3.67;;;;;;;19.81;75.38;65060.31;5050190;28;20296;-55
2023/09/04 09:04:30;;;;;;;5.20;3.50;;;;;;;19.66;77.38;65043.75;5050327;28;20702;-55
2023/09/04 09:06:58;;;;;;;4.60;4.20;;;;;;;19.97;76.32;65078.53;5050224;28;20217;-55
2023/09/04 09:09:25;;;;;;;5.13;4.40;;;;;;;19.67;78.19;65047.41;5050228;28;20736;-59
2023/09/04 09:11:54;;;;;;;5.88;4.93;;;;;;;19.52;77.45;65030.84;5050008;28;20209;-56
2023/09/04 09:14:20;;;;;;;9.48;5.13;;;;;;;19.64;79.12;65042.09;5050516;28;20237;-55
2023/09/04 09:16:46;;;;;;;8.45;5.25;;;;;;;19.33;78.95;65010.44;5050024;28;20213;-55
2023/09/04 09:19:13;;;;;;;8.88;5.40;;;;;;;19.01;78.08;64973.06;5049985;28;20209;-55
2023/09/04 09:21:39;;;;;;;11.80;7.15;;;;;;;18.17;82.77;64880.38;5049808;28;20304;-55
2023/09/04 09:24:16;;;;;;;8.32;4.85;;;;;;;17.81;84.92;64843.25;5050272;28;20240;-55
2023/09/04 09:26:45;;;;;;;14.43;4.95;;;;;;;17.47;87.99;64806.84;5049228;28;20270;-55
2023/09/04 09:29:12;;;;;;;7.80;5.20;;;;;;;17.32;89.60;64787.22;5049702;28;20213;-54
2023/09/04 09:31:39;;;;;;;18.05;7.72;;;;;;;17.32;90.26;64790.31;5049199;28;20238;-58
2023/09/04 09:34:05;;;;;;;5.72;5.15;;;;;;;17.25;91.17;64782.06;5048736;28;20584;-55
2023/09/04 09:36:31;;;;;;;5.72;5.05;;;;;;;17.38;90.11;64799.50;5050197;28;20209;-56
2023/09/04 09:38:57;;;;;;;4.47;4.05;;;;;;;17.25;91.11;64779.53;5032287;28;20288;-56
2023/09/04 09:41:25;;;;;;;6.70;5.07;;;;;;;17.16;92.29;64772.69;5050102;28;20215;-56
2023/09/04 09:43:51;;;;;;;5.63;4.28;;;;;;;17.08;92.52;64761.34;5049595;28;20299;-51
2023/09/04 09:46:17;;;;;;;29.85;10.93;;;;;;;17.19;92.89;64775.47;5050035;28;20292;-52
2023/09/04 09:48:44;;;;;;;14.68;8.32;;;;;;;17.15;93.18;64773.59;5052885;28;20574;-51
2023/09/04 09:51:10;;;;;;;25.00;9.57;;;;;;;17.25;95.60;64784.63;5053257;28;20244;-59
2023/09/04 09:53:46;;;;;;;6.32;5.18;;;;;;;17.25;93.89;64782.06;5053331;28;20224;-52
2023/09/04 09:56:13;;;;;;;5.40;4.90;;;;;;;17.15;94.64;64774.13;5062294;22;20252;-55
2023/09/04 09:58:45;;;;;;;17.08;7.60;;;;;;;17.21;95.08;64777.66;5073053;28;20205;-53
2023/09/04 10:01:11;;;;;;;5.25;4.80;;;;;;;17.68;93.60;64828.91;5070011;28;20217;-52
2023/09/04 10:03:38;;;;;;;7.80;5.28;;;;;;;17.47;93.33;64806.84;5053181;28;20201;-52
2023/09/04 10:06:06;;;;;;;7.03;4.78;;;;;;;17.33;95.11;64790.88;5053054;28;20205;-53
2023/09/04 10:08:43;;;;;;;10.02;5.72;;;;;;;17.28;95.91;64787.91;5052836;28;20205;-52
2023/09/04 10:11:14;;;;;;;5.30;4.80;;;;;;;17.17;97.08;64776.34;5053158;28;20212;-53
2023/09/04 10:14:03;;;;;;;9.85;7.82;;;;;;;17.21;100.00;64777.66;5051802;28;20220;-55
2023/09/04 10:16:35;;;;;;;13.27;5.95;;;;;;;17.26;100.00;64780.63;5042861;28;20285;-52
2023/09/04 10:19:02;;;;;;;7.57;6.53;;;;;;;17.32;100.00;64787.22;5052805;28;20185;-53
2023/09/04 10:21:34;;;;;;;6.43;5.78;;;;;;;17.31;100.00;64789.22;5052917;28;20221;-53
2023/09/04 10:24:02;;;;;;;11.32;5.97;;;;;;;17.38;100.00;64798.94;5052605;28;20288;-53
2023/09/04 10:26:46;;;;;;;27.90;10.15;;;;;;;17.33;100.00;64788.34;5052597;28;20211;-52
2023/09/04 10:29:17;;;;;;;25.70;8.88;;;;;;;17.49;100.00;64808.53;5052573;28;20217;-53
2023/09/04 10:31:43;;;;;;;15.77;7.25;;;;;;;17.58;100.00;64819.00;5052900;28;20239;-56
2023/09/04 10:34:09;;;;;;;11.75;7.35;;;;;;;17.55;100.00;64815.69;5052521;28;20193;-53
2023/09/04 10:36:36;;;;;;;11.00;7.10;;;;;;;17.66;100.00;64827.25;5052541;28;20713;-52
2023/09/04 10:39:03;;;;;;;10.18;6.72;;;;;;;17.82;100.00;64844.34;5052438;28;20201;-52
2023/09/04 10:41:31;;;;;;;34.40;12.55;;;;;;;17.80;100.00;64842.13;5052312;28;20200;-52
2023/09/04 10:43:56;;;;;;;8.55;6.47;;;;;;;17.86;100.00;64851.31;5052521;28;20684;-53
2023/09/04 10:46:23;;;;;;;8.73;5.75;;;;;;;17.88;100.00;64851.50;5052247;28;20316;-55
2023/09/04 10:48:51;;;;;;;8.32;6.85;;;;;;;18.03;100.00;64867.50;5034541;28;20288;-53
2023/09/04 10:51:38;;;;;;;13.85;9.38;;;;;;;17.74;100.00;64835.53;5052533;28;20211;-52
2023/09/04 10:54:07;;;;;;;11.18;7.05;;;;;;;17.81;100.00;64841.25;5052703;28;20209;-53
2023/09/04 10:56:57;;;;;;;9.73;7.63;;;;;;;17.86;100.00;64848.75;5052278;28;20271;-51
2023/09/04 10:59:25;;;;;;;6.45;5.07;;;;;;;17.85;100.00;64847.66;5052193;28;20205;-52
2023/09/04 11:01:51;;;;;;;6.80;6.10;;;;;;;17.81;100.00;64843.81;5034449;28;20585;-51
2023/09/04 11:04:36;;;;;;;7.72;6.30;;;;;;;17.75;100.00;64834.66;5056694;22;20232;-52
2023/09/04 11:07:20;;;;;;;50.45;10.43;;;;;;;17.78;100.00;64843.03;5042138;28;20229;-52
2023/09/04 11:10:07;;;;;;;28.02;8.77;;;;;;;17.73;100.00;64837.53;5032284;28;20363;-51
2023/09/04 11:12:37;;;;;;;21.67;9.18;;;;;;;17.68;100.00;64826.38;5001820;28;20653;-53
2023/09/04 11:15:15;;;;;;;18.80;8.05;;;;;;;17.73;100.00;64832.44;5032328;28;20198;-51
2023/09/04 11:17:44;;;;;;;16.90;7.10;;;;;;;17.78;100.00;64839.94;5047742;28;20237;-52
2023/09/04 11:20:14;;;;;;;19.88;7.53;;;;;;;17.80;100.00;64842.69;5032364;28;20209;-52
2023/09/04 11:22:47;;;;;;;6.95;5.20;;;;;;;17.80;100.00;64842.69;5032058;28;20202;-55
2023/09/04 11:25:12;;;;;;;7.15;5.00;;;;;;;17.88;100.00;64850.94;5030799;28;20206;-52
2023/09/04 11:27:38;;;;;;;10.10;5.82;;;;;;;17.85;100.00;64850.22;5032243;28;20221;-52